Time;durP1;ratioP1;P1;durP2;ratioP2;P2;SDS_P1;SDS_P2;PMS_P1;PMS_P2;Temp;Humidity;BMP_temperature;BMP_pressure;BME280_temperature;BME280_humidity;BME280_pressure;Samples;Min_cycle;Max_cycle;Signal;HPM_P1;HPM_P2
2022/08/23 00:00:58;;;;;;;14.45;12.00;;;;;;;18.98;84.83;92980.50;5092577;28;20429;-68
2022/08/23 00:03:23;;;;;;;14.93;12.20;;;;;;;19.05;85.27;92980.25;5110526;28;20040;-67
2022/08/23 00:05:49;;;;;;;15.73;11.57;;;;;;;19.12;84.50;92987.63;5090295;28;20532;-66
2022/08/23 00:08:14;;;;;;;16.63;11.05;;;;;;;19.14;84.43;92984.22;5089786;28;20036;-66
2022/08/23 00:10:40;;;;;;;15.57;11.13;;;;;;;19.09;84.26;92983.25;5090433;28;20016;-66
2022/08/23 00:13:05;;;;;;;17.33;11.45;;;;;;;19.08;84.49;92992.28;5090513;28;20448;-66
2022/08/23 00:15:32;;;;;;;17.00;12.55;;;;;;;19.03;84.93;92994.13;5090084;28;20073;-67
2022/08/23 00:17:59;;;;;;;17.08;11.40;;;;;;;18.91;85.44;92990.63;5092321;28;20042;-66
2022/08/23 00:20:25;;;;;;;18.10;11.57;;;;;;;18.88;86.05;92989.09;5094522;28;20028;-67
2022/08/23 00:22:50;;;;;;;20.92;12.15;;;;;;;18.86;85.90;92986.88;5094439;28;20054;-67
2022/08/23 00:25:17;;;;;;;15.23;10.93;;;;;;;18.89;86.12;92996.13;5094459;28;20393;-67
2022/08/23 00:27:42;;;;;;;17.73;12.10;;;;;;;18.89;86.30;92996.84;5094407;28;20116;-66
2022/08/23 00:30:11;;;;;;;16.73;12.43;;;;;;;18.92;86.50;92997.69;5094322;28;20470;-66
2022/08/23 00:32:37;;;;;;;18.47;11.83;;;;;;;18.90;86.84;93000.38;5094002;28;20028;-67
2022/08/23 00:35:04;;;;;;;18.30;12.20;;;;;;;18.79;87.16;92996.31;5093931;28;20550;-67
2022/08/23 00:37:31;;;;;;;16.52;12.45;;;;;;;18.88;87.00;93005.88;5094159;28;20538;-68
2022/08/23 00:39:57;;;;;;;14.70;11.73;;;;;;;18.97;86.43;93010.59;5094141;28;20397;-66
2022/08/23 00:48:06;;;;;;;14.75;13.10;;;;;;;18.64;86.80;93018.47;5093108;28;20082;-63
2022/08/23 00:50:52;;;;;;;16.42;13.77;;;;;;;18.57;87.20;93025.06;5092786;28;20071;-63
2022/08/23 00:53:30;;;;;;;16.60;13.25;;;;;;;18.29;88.54;92996.16;5092455;28;20028;-63
2022/08/23 00:55:58;;;;;;;18.45;14.65;;;;;;;18.15;90.67;93015.63;5092397;28;20505;-62
2022/08/23 00:58:25;;;;;;;14.93;13.00;;;;;;;18.01;90.69;93017.59;5105476;28;20424;-60
2022/08/23 01:00:53;;;;;;;16.02;13.32;;;;;;;17.92;90.84;93003.72;5112618;28;20465;-60
2022/08/23 01:03:21;;;;;;;21.40;13.85;;;;;;;17.75;92.47;92998.50;5114084;27;20404;-59
2022/08/23 01:06:06;;;;;;;17.30;13.57;;;;;;;17.63;93.54;92989.41;5093436;28;20509;-59
2022/08/23 01:08:32;;;;;;;14.25;12.15;;;;;;;17.53;94.08;92992.31;5095603;28;20177;-59
2022/08/23 01:11:21;;;;;;;16.10;12.70;;;;;;;17.46;94.97;92996.03;5113574;28;20098;-59
2022/08/23 01:13:57;;;;;;;16.25;12.10;;;;;;;17.47;94.01;92988.41;5112519;28;20103;-60
2022/08/23 01:16:27;;;;;;;19.98;13.40;;;;;;;17.35;95.14;92977.22;5112630;28;20400;-59
2022/08/23 01:18:53;;;;;;;16.15;11.40;;;;;;;17.31;95.03;92968.59;5112340;28;20628;-61
2022/08/23 01:21:38;;;;;;;15.70;11.88;;;;;;;17.20;95.32;92966.50;5112514;28;20027;-60
2022/08/23 01:24:04;;;;;;;14.27;10.93;;;;;;;17.18;96.04;92963.59;5112610;28;20050;-59
2022/08/23 01:26:33;;;;;;;12.80;9.65;;;;;;;17.06;95.16;92940.53;5112487;28;20543;-58
2022/08/23 01:29:00;;;;;;;15.25;11.10;;;;;;;17.05;96.44;92942.59;5111876;28;20084;-59
2022/08/23 01:31:27;;;;;;;19.20;11.05;;;;;;;17.08;96.76;92932.31;5113560;28;20061;-60
2022/08/23 01:34:15;;;;;;;14.40;10.50;;;;;;;17.00;96.71;92924.16;5113520;28;20048;-59
2022/08/23 01:36:42;;;;;;;12.25;9.23;;;;;;;17.00;97.96;92917.88;5111948;28;20026;-61
2022/08/23 01:39:07;;;;;;;12.35;8.80;;;;;;;17.01;97.93;92906.09;5112213;28;20032;-60
2022/08/23 01:41:33;;;;;;;11.75;8.60;;;;;;;16.96;97.60;92909.97;5113366;28;20401;-60
2022/08/23 01:43:59;;;;;;;10.93;7.68;;;;;;;16.92;96.58;92912.50;5113307;28;20444;-59
2022/08/23 01:46:26;;;;;;;10.00;6.80;;;;;;;16.91;97.00;92921.47;5113563;28;20104;-61
2022/08/23 01:48:53;;;;;;;9.73;6.20;;;;;;;16.87;95.11;92921.22;5113209;28;20045;-61
2022/08/23 01:51:19;;;;;;;13.52;5.10;;;;;;;16.91;91.68;92921.47;5113098;28;20023;-60
2022/08/23 01:53:45;;;;;;;11.00;6.47;;;;;;;16.94;92.68;92928.63;5111759;28;20023;-59
2022/08/23 01:56:12;;;;;;;7.45;5.28;;;;;;;16.91;92.50;92919.44;5113001;27;20023;-58
2022/08/23 01:58:38;;;;;;;9.95;5.97;;;;;;;16.84;93.05;92922.44;5111484;28;20038;-59
2022/08/23 02:01:04;;;;;;;10.35;6.10;;;;;;;16.79;93.80;92923.50;5113028;28;20106;-59
2022/08/23 02:03:31;;;;;;;8.40;6.30;;;;;;;16.75;95.38;92920.47;5111723;28;20408;-59
2022/08/23 02:05:57;;;;;;;12.00;5.63;;;;;;;16.73;94.34;92920.34;5091065;28;20111;-59
2022/08/23 02:11:14;;;;;;;13.18;6.55;;;;;;;16.82;96.80;92916.72;5092455;28;20038;-59
2022/08/23 02:13:40;;;;;;;9.75;6.60;;;;;;;16.90;97.33;92928.38;5092309;28;20424;-60
2022/08/23 02:16:05;;;;;;;12.90;6.60;;;;;;;16.91;97.39;92935.41;5091897;28;20016;-59
2022/08/23 02:18:31;;;;;;;10.15;6.28;;;;;;;16.90;97.37;92934.69;5092285;28;20032;-60
2022/08/23 02:20:57;;;;;;;9.02;6.22;;;;;;;16.83;96.87;92916.13;5092230;28;20024;-60
2022/08/23 02:23:23;;;;;;;7.32;4.70;;;;;;;16.80;94.69;92930.53;5092116;28;20493;-59
2022/08/23 02:25:50;;;;;;;7.55;5.80;;;;;;;16.78;94.49;92933.19;5092124;28;20146;-60
2022/08/23 02:28:16;;;;;;;9.38;6.15;;;;;;;16.73;95.80;92926.66;5092052;28;20092;-59
2022/08/23 02:30:43;;;;;;;7.72;5.40;;;;;;;16.80;95.56;92922.19;5091991;28;20081;-60
2022/08/23 02:33:09;;;;;;;7.13;5.05;;;;;;;16.80;95.70;92916.59;5091896;28;20421;-61
2022/08/23 02:35:34;;;;;;;8.45;5.38;;;;;;;16.88;95.64;92922.66;5091588;28;20016;-60
2022/08/23 02:38:08;;;;;;;5.30;4.07;;;;;;;16.92;94.27;92939.66;5091864;28;20036;-60
2022/08/23 02:40:34;;;;;;;7.15;5.15;;;;;;;16.82;93.73;92941.81;5089544;28;20020;-60
2022/08/23 02:43:00;;;;;;;10.80;4.97;;;;;;;16.61;92.68;92957.25;5091753;28;20024;-61
2022/08/23 02:45:27;;;;;;;8.65;3.92;;;;;;;16.55;93.62;92970.06;5091488;28;20024;-59
2022/08/23 02:47:52;;;;;;;6.57;5.13;;;;;;;16.41;95.22;92972.66;5091652;28;20028;-61
2022/08/23 02:50:18;;;;;;;7.90;4.80;;;;;;;16.38;95.13;92975.91;5098501;28;20560;-59
2022/08/23 02:52:44;;;;;;;12.32;5.13;;;;;;;16.38;95.68;92984.25;5111696;28;20393;-59
2022/08/23 02:55:10;;;;;;;7.68;5.30;;;;;;;16.35;95.98;92991.06;5111493;28;20038;-60
2022/08/23 02:57:36;;;;;;;9.80;5.80;;;;;;;16.37;97.27;93002.31;5111596;28;20024;-60
2022/08/23 03:00:04;;;;;;;7.25;5.07;;;;;;;16.32;96.97;93015.25;5110597;28;20022;-62
2022/08/23 03:02:29;;;;;;;8.30;5.97;;;;;;;16.30;97.25;93001.19;5111695;27;20085;-61
2022/08/23 03:04:55;;;;;;;7.63;5.95;;;;;;;16.31;98.29;92999.13;5098248;28;20019;-61
2022/08/23 03:07:20;;;;;;;10.57;6.72;;;;;;;16.33;99.19;93002.06;5090851;28;20032;-60
2022/08/23 03:09:46;;;;;;;10.30;6.80;;;;;;;16.35;99.32;93007.75;5090715;28;20027;-60
2022/08/23 03:12:11;;;;;;;8.57;7.45;;;;;;;16.32;98.97;93001.31;5091196;28;20024;-61
2022/08/23 03:14:37;;;;;;;10.77;8.40;;;;;;;16.35;98.42;92994.53;5091277;28;20609;-63
2022/08/23 03:17:03;;;;;;;10.77;8.35;;;;;;;16.31;98.68;92990.75;5091055;28;20492;-60
2022/08/23 03:19:28;;;;;;;13.05;9.68;;;;;;;16.30;100.00;92990.06;5091114;28;20024;-60
2022/08/23 03:21:54;;;;;;;11.52;8.95;;;;;;;16.34;100.00;92989.56;5091119;28;20105;-60
2022/08/23 03:24:20;;;;;;;11.30;8.55;;;;;;;16.38;100.00;92979.44;5090691;28;20583;-61
2022/08/23 03:26:45;;;;;;;12.38;8.68;;;;;;;16.37;100.00;92982.81;5090745;28;20023;-60
2022/08/23 03:29:11;;;;;;;13.02;8.73;;;;;;;16.36;100.00;92982.09;5090584;28;20020;-59
2022/08/23 03:31:37;;;;;;;10.88;8.32;;;;;;;16.33;100.00;92985.34;5090724;28;20020;-61
2022/08/23 03:34:03;;;;;;;12.45;9.65;;;;;;;16.38;100.00;92982.22;5090568;28;20031;-62
2022/08/23 03:36:29;;;;;;;18.48;8.93;;;;;;;16.37;100.00;92964.03;5090773;28;20477;-62
2022/08/23 03:38:54;;;;;;;10.15;9.05;;;;;;;16.45;99.82;92984.06;5090864;28;20031;-60
2022/08/23 03:41:20;;;;;;;11.60;9.15;;;;;;;16.34;100.00;92986.78;5090719;28;20054;-60
2022/08/23 03:43:46;;;;;;;12.30;9.30;;;;;;;16.34;100.00;92981.94;5091024;28;20024;-61
2022/08/23 03:46:21;;;;;;;12.90;10.18;;;;;;;16.37;100.00;92988.41;5094244;28;20023;-60
2022/08/23 03:48:52;;;;;;;12.00;9.55;;;;;;;16.29;100.00;92979.50;5110874;28;20015;-60
2022/08/23 03:51:19;;;;;;;10.57;8.60;;;;;;;16.41;100.00;92985.88;5110559;28;20102;-59
2022/08/23 03:53:46;;;;;;;11.02;9.20;;;;;;;16.38;100.00;92973.13;5109487;28;20053;-60
2022/08/23 03:56:24;;;;;;;10.52;8.00;;;;;;;16.59;98.88;92973.84;5110862;28;20396;-60
2022/08/23 03:58:49;;;;;;;12.77;8.90;;;;;;;16.63;98.05;92971.31;5109754;28;20461;-60
2022/08/23 04:01:15;;;;;;;8.75;7.80;;;;;;;16.61;96.77;92950.97;5110669;28;20015;-60
2022/08/23 04:03:42;;;;;;;10.45;7.43;;;;;;;16.37;96.78;92930.59;5106615;28;20031;-60
2022/08/23 04:06:08;;;;;;;11.73;7.53;;;;;;;16.52;97.09;92963.63;5090042;28;20051;-60
2022/08/23 04:08:34;;;;;;;13.68;7.30;;;;;;;16.57;95.85;92954.22;5090211;28;20505;-61
2022/08/23 04:10:59;;;;;;;10.50;7.20;;;;;;;16.42;96.35;92954.59;5090170;28;20110;-61
2022/08/23 04:13:27;;;;;;;10.38;7.60;;;;;;;16.34;97.66;92961.72;5090197;28;20062;-61
2022/08/23 04:15:53;;;;;;;7.95;6.63;;;;;;;16.43;96.77;92964.44;5090087;28;20020;-61
2022/08/23 04:18:19;;;;;;;12.55;8.27;;;;;;;16.32;97.00;92967.91;5090148;28;20111;-61
2022/08/23 04:20:46;;;;;;;12.38;8.50;;;;;;;16.30;98.12;92964.25;5090397;28;20139;-62
2022/08/23 04:23:11;;;;;;;11.55;7.43;;;;;;;16.29;98.70;92966.28;5089993;28;20027;-61
2022/08/23 04:25:37;;;;;;;12.77;8.45;;;;;;;16.31;98.91;92960.84;5090148;28;20028;-60
2022/08/23 04:28:03;;;;;;;14.30;8.52;;;;;;;16.34;97.15;92968.03;5089999;28;20024;-64
2022/08/23 04:30:30;;;;;;;11.55;8.02;;;;;;;16.38;96.33;92970.34;5090010;28;20027;-63
2022/08/23 04:32:56;;;;;;;10.45;8.20;;;;;;;16.24;97.15;92949.94;5090291;28;20101;-62
2022/08/23 04:35:21;;;;;;;13.23;9.23;;;;;;;16.43;98.14;92977.63;5090137;28;20140;-63
2022/08/23 04:37:47;;;;;;;12.48;8.82;;;;;;;16.53;98.53;92967.16;5089964;28;20032;-63
2022/08/23 04:42:56;;;;;;;13.32;8.20;;;;;;;16.68;98.69;92967.47;5098434;28;20515;-63
2022/08/23 04:45:22;;;;;;;13.07;8.02;;;;;;;16.76;98.76;92966.53;5110418;28;20020;-64
2022/08/23 04:47:48;;;;;;;12.77;8.32;;;;;;;16.88;97.84;92964.50;5110467;28;20393;-63
2022/08/23 04:50:13;;;;;;;13.30;8.98;;;;;;;17.01;96.54;92961.13;5110440;28;20081;-63
2022/08/23 04:52:39;;;;;;;10.35;7.95;;;;;;;17.13;96.12;92967.50;5110130;28;20043;-63
2022/08/23 04:55:05;;;;;;;13.73;8.27;;;;;;;17.11;96.10;92972.91;5110455;28;20100;-63
2022/08/23 04:57:31;;;;;;;9.10;7.32;;;;;;;17.18;95.32;92971.97;5109951;28;20477;-64
2022/08/23 04:59:56;;;;;;;15.82;8.32;;;;;;;17.24;94.96;92984.22;5110423;28;20032;-64
2022/08/23 05:02:22;;;;;;;11.05;8.23;;;;;;;17.34;95.00;92995.31;5110018;28;20023;-64
2022/08/23 05:04:47;;;;;;;13.77;8.30;;;;;;;17.40;94.74;93001.25;5101228;28;20111;-65
2022/08/23 05:07:14;;;;;;;10.30;7.68;;;;;;;17.44;94.46;92995.91;5093296;28;20039;-64
2022/08/23 05:22:20;;;;;;;12.30;8.73;;;;;;;18.42;88.21;93028.34;5128387;27;20685;-68
2022/08/23 05:24:46;;;;;;;11.60;8.23;;;;;;;18.33;87.59;93021.56;5128792;27;20106;-68
2022/08/23 05:27:11;;;;;;;9.77;8.18;;;;;;;18.28;87.80;93025.44;5128215;27;20027;-68
2022/08/23 05:29:37;;;;;;;8.32;7.03;;;;;;;18.24;87.69;93019.63;5128638;27;20072;-67
2022/08/23 05:32:02;;;;;;;9.13;7.13;;;;;;;18.25;87.75;93035.06;5128543;27;20492;-68
2022/08/23 05:34:28;;;;;;;10.95;7.97;;;;;;;18.22;88.43;93036.25;5128588;27;20319;-68
2022/08/23 05:36:53;;;;;;;10.20;8.10;;;;;;;18.18;89.46;93042.34;5128546;27;20492;-69
2022/08/23 05:39:19;;;;;;;10.82;7.90;;;;;;;18.15;90.05;93045.63;5118692;27;20459;-69
2022/08/23 05:41:45;;;;;;;11.13;8.50;;;;;;;18.20;89.97;93038.94;5107887;28;20099;-69
2022/08/23 05:44:11;;;;;;;11.45;8.02;;;;;;;18.26;89.85;93047.69;5109530;28;20028;-70
2022/08/23 05:46:37;;;;;;;9.90;7.50;;;;;;;18.32;89.87;93052.91;5128000;27;20027;-71
2022/08/23 05:49:03;;;;;;;8.27;6.70;;;;;;;18.40;89.01;93053.38;5127909;27;20031;-70
2022/08/23 05:51:31;;;;;;;8.55;6.97;;;;;;;18.45;89.00;93050.22;5128136;27;20019;-67
2022/08/23 05:53:59;;;;;;;8.10;6.97;;;;;;;18.48;87.96;93062.25;5128221;27;20416;-70
2022/08/23 05:56:30;;;;;;;8.82;6.38;;;;;;;18.58;85.69;93069.16;5128107;27;20396;-69
2022/08/23 05:58:59;;;;;;;7.45;6.60;;;;;;;18.67;85.28;93075.97;5127876;27;20027;-70
2022/08/23 06:01:26;;;;;;;9.77;8.18;;;;;;;18.76;85.77;93070.22;5127984;27;20043;-69
2022/08/23 06:03:51;;;;;;;12.02;8.48;;;;;;;18.80;84.78;93064.13;5127945;27;20062;-69
2022/08/23 06:06:17;;;;;;;8.63;7.35;;;;;;;18.86;82.21;93078.50;5127672;27;20054;-68
2022/08/23 06:08:47;;;;;;;11.73;8.40;;;;;;;18.85;82.83;93074.22;5122919;27;20020;-68
2022/08/23 06:11:18;;;;;;;13.68;10.45;;;;;;;18.93;84.25;93081.00;5106902;28;20027;-67
2022/08/23 06:13:47;;;;;;;11.68;9.27;;;;;;;19.04;84.43;93085.09;5106927;28;20053;-68
2022/08/23 06:16:14;;;;;;;12.55;8.35;;;;;;;19.11;84.76;93077.78;5106888;28;20480;-68
2022/08/23 06:18:40;;;;;;;10.95;8.23;;;;;;;19.26;85.48;93083.56;5111977;28;20019;-68
2022/08/23 06:21:10;;;;;;;12.40;8.88;;;;;;;19.30;82.71;93089.38;5126359;27;20092;-70
2022/08/23 06:23:36;;;;;;;8.55;7.75;;;;;;;19.33;81.27;93090.97;5113338;28;20027;-69
2022/08/23 06:26:10;;;;;;;9.02;7.55;;;;;;;19.37;82.27;93084.88;5113485;28;20042;-68
2022/08/23 06:28:35;;;;;;;16.17;9.02;;;;;;;19.42;83.60;93087.31;5113559;28;20076;-68
2022/08/23 06:31:00;;;;;;;8.65;6.60;;;;;;;19.41;83.62;93087.91;5113650;28;20074;-68
2022/08/23 06:33:26;;;;;;;11.25;7.85;;;;;;;19.43;83.77;93088.03;5113419;28;20023;-67
2022/08/23 06:36:04;;;;;;;9.25;7.43;;;;;;;19.49;83.11;93091.88;5113410;28;20031;-68
2022/08/23 06:38:30;;;;;;;12.35;7.07;;;;;;;19.56;83.52;93090.88;5113532;28;20281;-66
2022/08/23 06:41:01;;;;;;;13.57;10.23;;;;;;;19.57;81.93;93095.16;5113646;28;20400;-68
2022/08/23 06:43:27;;;;;;;12.38;7.63;;;;;;;19.63;82.41;93095.47;5113516;28;20031;-68
2022/08/23 06:45:52;;;;;;;10.43;7.38;;;;;;;19.77;81.62;93092.00;5113444;28;20054;-68
2022/08/23 06:48:18;;;;;;;13.23;7.35;;;;;;;19.97;80.50;93093.06;5113483;27;20400;-68
2022/08/23 06:50:43;;;;;;;8.35;6.32;;;;;;;20.19;78.49;93097.06;5113279;28;20081;-68
2022/08/23 06:53:09;;;;;;;9.68;6.25;;;;;;;20.39;77.78;93096.09;5113046;28;20028;-69
2022/08/23 06:55:35;;;;;;;8.55;6.55;;;;;;;20.73;78.37;93102.72;5113263;28;20016;-69
2022/08/23 06:58:00;;;;;;;7.28;5.78;;;;;;;20.93;76.20;93100.94;5113254;28;20027;-69
2022/08/23 07:00:26;;;;;;;7.72;5.75;;;;;;;21.11;74.33;93092.75;5112960;28;20026;-68
2022/08/23 07:02:52;;;;;;;10.20;5.95;;;;;;;21.22;74.21;93100.31;5112819;28;20479;-68
2022/08/23 07:05:17;;;;;;;12.25;6.43;;;;;;;21.24;72.48;93097.59;5113209;28;20027;-68
2022/08/23 07:07:43;;;;;;;10.52;7.20;;;;;;;21.16;74.27;93100.00;5112779;28;20023;-69
2022/08/23 07:10:08;;;;;;;9.90;5.80;;;;;;;21.13;72.84;93104.81;5096137;28;20016;-68
2022/08/23 07:12:40;;;;;;;5.93;4.95;;;;;;;21.09;72.68;93101.06;5092683;28;20447;-68
2022/08/23 07:15:07;;;;;;;8.50;6.20;;;;;;;20.96;74.57;93094.06;5092299;28;20028;-70
2022/08/23 07:17:32;;;;;;;8.35;6.60;;;;;;;20.83;74.05;93094.09;5092244;28;20024;-68
2022/08/23 07:19:58;;;;;;;15.48;7.78;;;;;;;20.93;75.24;93092.53;5108319;28;20022;-67
2022/08/23 07:22:23;;;;;;;10.15;6.35;;;;;;;21.12;75.49;93108.94;5113094;28;20064;-69
2022/08/23 07:24:49;;;;;;;7.22;5.07;;;;;;;21.25;72.87;93104.66;5112553;28;20473;-69
2022/08/23 07:27:14;;;;;;;6.85;5.10;;;;;;;21.30;71.25;93123.16;5112464;28;20023;-70
2022/08/23 07:29:40;;;;;;;10.57;5.72;;;;;;;21.16;71.36;93096.47;5112279;28;20031;-68
2022/08/23 07:32:06;;;;;;;6.13;5.53;;;;;;;21.20;72.30;93116.31;5112593;28;20036;-68
2022/08/23 07:34:32;;;;;;;7.68;6.28;;;;;;;21.01;74.18;93100.59;5111083;28;20032;-69
2022/08/23 07:36:57;;;;;;;14.13;6.30;;;;;;;21.06;73.46;93111.47;5112538;27;20023;-69
2022/08/23 07:39:25;;;;;;;10.35;6.15;;;;;;;21.08;74.01;93119.97;5112043;28;20024;-69
2022/08/23 07:41:51;;;;;;;9.93;5.93;;;;;;;21.02;74.82;93116.84;5112103;28;20031;-67
2022/08/23 07:44:17;;;;;;;6.45;5.68;;;;;;;21.19;76.57;93121.19;5111961;28;20035;-68
2022/08/23 07:46:43;;;;;;;8.10;5.68;;;;;;;21.28;76.39;93119.53;5111974;27;20295;-67
2022/08/23 07:49:10;;;;;;;6.28;5.40;;;;;;;21.39;73.81;93113.03;5112273;28;20034;-68
2022/08/23 07:51:36;;;;;;;6.47;4.70;;;;;;;21.65;73.85;93111.50;5111821;28;20024;-68
2022/08/23 07:54:05;;;;;;;5.85;4.43;;;;;;;22.11;69.21;93119.31;5111805;28;20035;-67
2022/08/23 07:56:30;;;;;;;5.38;4.35;;;;;;;22.68;69.86;93114.19;5110615;28;20535;-65
2022/08/23 07:58:56;;;;;;;5.05;4.32;;;;;;;23.05;68.44;93117.22;5111768;27;20024;-66
2022/08/23 08:01:25;;;;;;;5.35;4.25;;;;;;;23.42;67.98;93115.94;5112033;28;20020;-66
2022/08/23 08:03:53;;;;;;;5.22;4.70;;;;;;;23.68;63.82;93117.75;5111725;28;20094;-66
2022/08/23 08:06:25;;;;;;;8.07;6.25;;;;;;;23.79;65.32;93113.97;5111659;28;20031;-66
2022/08/23 08:08:52;;;;;;;6.85;5.05;;;;;;;23.74;63.05;93123.63;5105527;28;20032;-66
2022/08/23 08:11:20;;;;;;;8.32;5.50;;;;;;;23.62;64.72;93125.97;5091086;28;20031;-66
2022/08/23 08:13:47;;;;;;;8.40;5.55;;;;;;;23.59;65.66;93123.69;5091430;28;20036;-65
2022/08/23 08:16:40;;;;;;;9.82;6.00;;;;;;;23.60;63.41;93117.44;5091041;28;20492;-65
2022/08/23 08:19:08;;;;;;;12.20;5.30;;;;;;;23.88;62.11;93120.66;5098658;28;20105;-65
2022/08/23 08:21:34;;;;;;;5.45;3.65;;;;;;;23.75;55.15;93115.91;5111242;28;20124;-65
2022/08/23 08:24:01;;;;;;;6.45;4.38;;;;;;;23.86;55.73;93117.75;5111320;28;20046;-67
2022/08/23 08:26:27;;;;;;;5.05;4.50;;;;;;;23.86;55.60;93124.13;5111258;28;20023;-66
2022/08/23 08:28:55;;;;;;;5.55;4.55;;;;;;;24.12;59.33;93113.16;5111190;28;20412;-65
2022/08/23 08:31:21;;;;;;;5.13;4.63;;;;;;;24.49;58.95;93109.63;5111162;28;20031;-66
2022/08/23 08:33:47;;;;;;;6.68;4.72;;;;;;;24.71;58.29;93099.16;5111142;28;20556;-64
2022/08/23 08:36:35;;;;;;;6.03;4.57;;;;;;;25.06;56.28;93118.06;5111366;28;20098;-65
2022/08/23 08:39:05;;;;;;;7.00;4.38;;;;;;;25.49;59.34;93121.00;5111437;28;20035;-64
2022/08/23 08:41:36;;;;;;;12.25;4.82;;;;;;;25.95;56.86;93110.47;5111048;28;20050;-65
2022/08/23 08:44:09;;;;;;;6.70;4.60;;;;;;;26.12;54.82;93109.59;5110953;28;20035;-65
2022/08/23 08:46:38;;;;;;;7.40;5.53;;;;;;;26.47;51.52;93109.28;5109554;28;20042;-65
2022/08/23 08:49:04;;;;;;;6.40;5.10;;;;;;;26.96;53.02;93097.28;5110907;28;20066;-66
2022/08/23 08:51:50;;;;;;;6.93;4.80;;;;;;;27.89;47.97;93097.59;5111083;28;20416;-66
2022/08/23 08:54:18;;;;;;;5.60;4.78;;;;;;;28.62;45.48;93099.28;5109973;28;20031;-65
2022/08/23 08:56:48;;;;;;;5.47;4.53;;;;;;;29.44;44.93;93100.97;5110826;28;20052;-63
2022/08/23 08:59:19;;;;;;;6.38;3.90;;;;;;;30.13;41.32;93093.59;5109889;28;20031;-63
2022/08/23 09:01:46;;;;;;;4.35;3.67;;;;;;;30.61;40.66;93086.53;5109873;28;20101;-64
2022/08/23 09:04:12;;;;;;;6.95;4.53;;;;;;;30.54;39.33;93099.25;5111015;28;20038;-65
2022/08/23 09:06:49;;;;;;;4.78;4.20;;;;;;;30.16;38.79;93106.47;5111060;28;20449;-64
2022/08/23 09:09:24;;;;;;;5.85;4.50;;;;;;;30.12;41.91;93100.72;5100059;28;20032;-64
2022/08/23 09:11:55;;;;;;;6.35;4.13;;;;;;;30.12;40.31;93103.56;5090272;28;20039;-63
2022/08/23 09:14:41;;;;;;;5.43;4.50;;;;;;;30.11;41.79;93104.97;5090296;28;20032;-63
2022/08/23 09:17:29;;;;;;;4.47;4.07;;;;;;;30.40;42.77;93090.50;5090655;28;20034;-63
2022/08/23 09:19:59;;;;;;;4.95;4.00;;;;;;;30.61;40.20;93100.03;5104461;28;20523;-63
2022/08/23 09:22:34;;;;;;;5.45;4.95;;;;;;;30.86;40.55;93096.16;5109645;28;20027;-63
2022/08/23 09:24:59;;;;;;;5.43;4.78;;;;;;;31.69;38.05;93086.41;5110900;28;20038;-61
2022/08/23 09:27:25;;;;;;;5.35;4.72;;;;;;;32.81;36.96;93095.13;5110356;28;20474;-62
2022/08/23 09:29:57;;;;;;;5.75;5.25;;;;;;;33.49;34.65;93097.59;5110733;28;20106;-63
2022/08/23 09:32:34;;;;;;;6.22;5.57;;;;;;;34.00;34.37;93092.69;5110429;28;20020;-63
2022/08/23 09:35:20;;;;;;;5.97;5.38;;;;;;;34.63;33.23;93098.47;5110509;28;20500;-63
2022/08/23 09:38:30;;;;;;;6.90;5.95;;;;;;;34.90;34.04;93094.09;5110698;28;20027;-62
2022/08/23 09:40:57;;;;;;;10.85;6.13;;;;;;;34.40;33.60;93088.41;5067474;28;20033;-63
2022/08/23 09:43:25;;;;;;;7.43;6.40;;;;;;;33.05;35.96;93091.69;5067425;28;20416;-61
2022/08/23 09:45:51;;;;;;;;;;;;;;;31.69;39.36;93097.09;5088828;28;20066;-61
2022/08/23 09:48:38;;;;;;;8.60;7.80;;;;;;;30.55;40.59;93099.97;5110315;28;20391;-62
2022/08/23 09:51:15;;;;;;;10.68;9.57;;;;;;;29.90;42.10;93096.13;5110439;28;20057;-61
2022/08/23 09:53:44;;;;;;;13.20;11.48;;;;;;;29.67;44.32;93093.56;5109490;28;20054;-61
2022/08/23 09:56:13;;;;;;;28.83;21.50;;;;;;;30.19;43.44;93093.72;5109092;28;20492;-61
2022/08/23 09:58:42;;;;;;;10.77;9.32;;;;;;;30.78;42.17;93095.28;5114235;28;20030;-62
2022/08/23 10:01:24;;;;;;;8.68;7.32;;;;;;;30.85;42.41;93091.81;5112914;28;20538;-62
2022/08/23 10:04:21;;;;;;;8.27;6.97;;;;;;;29.89;43.65;93096.78;5114100;28;20031;-61
2022/08/23 10:06:47;;;;;;;7.78;7.00;;;;;;;29.69;46.41;93097.13;5114053;28;20016;-59
2022/08/23 10:09:27;;;;;;;9.65;7.20;;;;;;;30.03;43.99;93094.19;5113580;28;20031;-61
2022/08/23 10:11:55;;;;;;;11.02;8.00;;;;;;;29.57;44.53;93091.25;5114094;28;20012;-60
2022/08/23 10:14:22;;;;;;;9.07;7.70;;;;;;;29.01;45.92;93093.72;5113819;28;20057;-64
2022/08/23 10:17:32;;;;;;;10.73;8.38;;;;;;;28.40;47.93;93099.50;5113821;28;20039;-60
2022/08/23 10:20:32;;;;;;;11.55;8.95;;;;;;;28.07;49.17;93094.50;5105978;28;20035;-59
2022/08/23 10:23:09;;;;;;;11.60;8.32;;;;;;;27.99;49.94;93088.59;5113998;28;20023;-61
2022/08/23 10:25:54;;;;;;;9.50;8.13;;;;;;;27.88;50.62;93089.72;5092421;28;20032;-62
2022/08/23 10:31:27;;;;;;;10.45;8.07;;;;;;;27.83;49.14;93085.38;5093261;28;20055;-63
2022/08/23 10:34:17;;;;;;;11.48;8.85;;;;;;;27.41;50.30;93091.41;5093112;28;20031;-61
2022/08/23 10:37:03;;;;;;;14.85;11.30;;;;;;;27.53;52.13;93091.00;5093067;28;20505;-61
2022/08/23 10:39:30;;;;;;;9.88;8.65;;;;;;;27.79;49.79;93083.88;5092988;28;20549;-59
2022/08/23 10:42:05;;;;;;;7.53;6.72;;;;;;;27.92;47.28;93086.97;5092911;28;20027;-65
2022/08/23 10:44:34;;;;;;;7.53;5.65;;;;;;;27.72;44.84;93084.41;5092896;28;20020;-66
2022/08/23 10:47:09;;;;;;;7.25;6.30;;;;;;;27.59;45.81;93096.84;5092068;28;20419;-66
2022/08/23 10:49:35;;;;;;;7.50;6.80;;;;;;;27.27;48.81;93098.78;5092831;28;20024;-64
2022/08/23 10:52:03;;;;;;;11.18;6.72;;;;;;;26.85;47.79;93076.44;5092668;28;20056;-63
2022/08/23 10:54:45;;;;;;;11.05;6.30;;;;;;;26.81;49.57;93095.44;5091908;28;20505;-64
2022/08/23 10:57:15;;;;;;;9.68;7.35;;;;;;;27.43;48.62;93099.97;5091506;28;20035;-62
2022/08/23 10:59:41;;;;;;;6.25;5.65;;;;;;;27.76;46.24;93098.69;5092629;28;20413;-63
2022/08/23 11:02:13;;;;;;;4.93;4.22;;;;;;;27.62;48.93;93089.81;5091625;28;20465;-62
2022/08/23 11:04:51;;;;;;;7.53;5.40;;;;;;;27.13;50.21;93095.59;5092587;28;20027;-63
2022/08/23 11:07:19;;;;;;;5.78;4.80;;;;;;;26.93;52.63;93098.59;5091604;28;20111;-63
2022/08/23 11:09:49;;;;;;;16.25;13.30;;;;;;;26.65;53.95;93098.50;5091598;28;20099;-62
2022/08/23 11:12:27;;;;;;;11.73;8.77;;;;;;;26.35;53.96;93099.69;5092589;28;20023;-62
2022/08/23 11:14:58;;;;;;;9.63;6.18;;;;;;;26.14;55.16;93098.38;5092288;28;20051;-62
2022/08/23 11:17:48;;;;;;;7.50;5.93;;;;;;;26.02;54.77;93090.19;5092574;28;20039;-62
2022/08/23 11:21:02;;;;;;;10.55;5.25;;;;;;;25.94;55.70;93097.72;5110150;28;20055;-62
2022/08/23 11:23:39;;;;;;;17.85;11.77;;;;;;;26.07;54.67;93097.44;5074521;28;20044;-62
2022/08/23 11:26:07;;;;;;;6.95;5.85;;;;;;;26.13;55.16;93105.41;5112435;28;20518;-62
2022/08/23 11:28:42;;;;;;;5.90;5.28;;;;;;;26.22;56.35;93104.28;5111162;28;20047;-63
2022/08/23 11:31:08;;;;;;;6.72;4.60;;;;;;;26.46;56.32;93116.34;5112285;28;20023;-62
2022/08/23 11:33:42;;;;;;;10.95;4.15;;;;;;;26.50;54.37;93130.59;5112252;28;20167;-61
2022/08/23 11:36:07;;;;;;;5.05;3.80;;;;;;;26.33;55.35;93134.34;5111127;28;20102;-62
2022/08/23 11:38:48;;;;;;;3.90;3.55;;;;;;;26.33;54.96;93136.44;5112169;28;20103;-62
2022/08/23 11:41:30;;;;;;;5.90;5.28;;;;;;;26.37;56.82;93145.06;5112183;28;20020;-62
2022/08/23 11:43:55;;;;;;;13.77;12.48;;;;;;;26.92;55.83;93140.34;5112067;28;20024;-62
2022/08/23 11:46:27;;;;;;;20.73;18.80;;;;;;;27.62;54.50;93138.03;5112001;28;20041;-62
2022/08/23 11:48:58;;;;;;;9.52;8.63;;;;;;;27.40;52.60;93143.09;5112296;28;20024;-61
2022/08/23 11:51:46;;;;;;;9.80;8.27;;;;;;;27.04;52.18;93135.06;5111823;28;20551;-63
2022/08/23 11:54:30;;;;;;;5.75;5.20;;;;;;;26.60;51.01;93136.56;5112269;28;20035;-64
2022/08/23 11:57:01;;;;;;;6.03;4.97;;;;;;;26.27;51.68;93129.19;5111799;28;20027;-62
2022/08/23 11:59:34;;;;;;;7.28;6.28;;;;;;;26.30;50.56;93124.31;5110922;28;20077;-62
2022/08/23 12:02:30;;;;;;;4.80;4.03;;;;;;;26.15;51.05;93120.34;5111749;28;20030;-63
2022/08/23 12:04:58;;;;;;;4.05;3.67;;;;;;;26.00;49.72;93117.69;5111958;28;20035;-62